Time;durP1;ratioP1;P1;durP2;ratioP2;P2;SDS_P1;SDS_P2;PMS_P1;PMS_P2;Temp;Humidity;BMP_temperature;BMP_pressure;BME280_temperature;BME280_humidity;BME280_pressure;Samples;Min_cycle;Max_cycle;Signal;HPM_P1;HPM_P2
2022/07/28 00:00:01;;;;;;;1.62;1.17;;;;;;;26.08;38.87;99737.22;4463036;32;33638;-86
2022/07/28 00:02:30;;;;;;;1.40;1.30;;;;;;;26.12;38.75;99741.28;4447797;32;33621;-86
2022/07/28 00:04:59;;;;;;;1.25;1.08;;;;;;;26.25;38.88;99738.94;4463028;32;33760;-85
2022/07/28 00:07:27;;;;;;;1.98;1.15;;;;;;;26.16;38.90;99734.53;4460536;32;32863;-85
2022/07/28 00:09:55;;;;;;;2.55;1.50;;;;;;;26.06;38.49;99731.09;4461124;32;33478;-87
2022/07/28 00:12:27;;;;;;;1.35;1.25;;;;;;;26.15;38.63;99730.09;4460971;32;34476;-86
2022/07/28 00:14:55;;;;;;;1.50;1.30;;;;;;;26.07;38.63;99730.12;4463212;32;33305;-86
2022/07/28 00:17:23;;;;;;;1.62;1.12;;;;;;;26.02;39.54;99729.78;4460536;32;33434;-86
2022/07/28 00:19:52;;;;;;;2.08;1.30;;;;;;;26.00;39.38;99732.63;4463115;32;33800;-86
2022/07/28 00:22:20;;;;;;;1.83;1.40;;;;;;;26.12;39.11;99729.63;4462702;32;33535;-86
2022/07/28 00:24:48;;;;;;;1.42;1.30;;;;;;;26.12;39.52;99733.16;4471108;32;34019;-86
2022/07/28 00:27:17;;;;;;;2.47;1.30;;;;;;;25.99;40.04;99732.81;4447724;32;32739;-86
2022/07/28 00:29:46;;;;;;;2.87;1.50;;;;;;;25.92;39.56;99726.37;4462118;32;34652;-86
2022/07/28 00:32:19;;;;;;;1.60;1.37;;;;;;;25.71;40.52;99724.13;4469666;32;33315;-86
2022/07/28 00:34:49;;;;;;;1.85;1.70;;;;;;;25.79;39.97;99716.06;4457590;32;34155;-86
2022/07/28 00:37:20;;;;;;;2.22;1.15;;;;;;;26.34;39.31;99720.78;4467504;32;33318;-86
2022/07/28 00:39:48;;;;;;;3.12;1.67;;;;;;;26.05;39.98;99718.59;4439233;32;33320;-86
2022/07/28 00:42:19;;;;;;;2.00;1.40;;;;;;;25.91;40.81;99720.13;4441398;32;33039;-86
2022/07/28 00:44:47;;;;;;;2.80;1.58;;;;;;;25.84;41.09;99720.97;4450710;32;32561;-86
2022/07/28 00:47:15;;;;;;;3.20;1.27;;;;;;;25.71;41.81;99714.13;4438530;32;32876;-86
2022/07/28 00:49:43;;;;;;;2.50;1.92;;;;;;;25.93;40.96;99711.84;4466278;32;32731;-85
2022/07/28 00:52:12;;;;;;;3.03;1.40;;;;;;;25.88;41.04;99714.22;4447517;32;34722;-84
2022/07/28 00:54:40;;;;;;;1.20;1.10;;;;;;;26.06;40.59;99712.16;4460372;32;33805;-83
2022/07/28 00:57:08;;;;;;;2.55;1.35;;;;;;;25.82;41.44;99704.88;4461394;32;33334;-83
2022/07/28 00:59:36;;;;;;;4.22;1.42;;;;;;;25.85;41.56;99703.72;4462086;32;34504;-83
2022/07/28 01:02:04;;;;;;;2.45;1.45;;;;;;;25.55;42.12;99716.81;4446171;32;34689;-83
2022/07/28 01:04:32;;;;;;;1.52;1.40;;;;;;;25.52;41.82;99717.16;4469686;32;33931;-85
2022/07/28 01:07:13;;;;;;;1.92;1.33;;;;;;;25.64;41.73;99718.53;4458880;32;32785;-85
2022/07/28 01:09:49;;;;;;;3.22;1.48;;;;;;;25.68;41.84;99711.75;4459396;32;34307;-85
2022/07/28 01:12:27;;;;;;;1.58;1.17;;;;;;;25.69;41.80;99708.06;4446448;32;34594;-85
2022/07/28 01:15:20;;;;;;;0.90;0.90;;;;;;;25.68;41.88;99713.63;4461607;32;34086;-85
2022/07/28 01:18:07;;;;;;;2.08;1.42;;;;;;;25.69;42.29;99705.38;4460518;32;33366;-84
2022/07/28 01:20:39;;;;;;;2.12;1.30;;;;;;;25.40;42.61;99710.34;4444798;32;32951;-86
2022/07/28 01:23:14;;;;;;;1.70;1.25;;;;;;;25.25;42.30;99719.06;4458042;32;34403;-86
2022/07/28 01:26:03;;;;;;;1.70;1.60;;;;;;;24.98;42.95;99712.03;4459999;32;33897;-86
2022/07/28 01:28:46;;;;;;;2.62;2.03;;;;;;;24.89;43.03;99717.56;4458718;32;33033;-86
2022/07/28 01:31:18;;;;;;;1.50;1.37;;;;;;;24.99;42.65;99712.88;4463364;32;33213;-87
2022/07/28 01:33:50;;;;;;;2.60;2.08;;;;;;;25.09;42.47;99719.03;4436494;32;33906;-86
2022/07/28 01:36:23;;;;;;;2.40;1.67;;;;;;;25.00;42.70;99722.66;4460350;32;32804;-87
2022/07/28 01:38:52;;;;;;;2.00;1.50;;;;;;;24.97;42.93;99722.97;4459897;32;33728;-86
2022/07/28 01:41:22;;;;;;;2.08;1.60;;;;;;;25.05;42.61;99725.72;4460491;32;34238;-86
2022/07/28 01:43:56;;;;;;;5.37;1.77;;;;;;;25.04;42.91;99727.56;4459027;32;33624;-86
2022/07/28 01:46:25;;;;;;;2.35;1.90;;;;;;;24.70;43.68;99730.28;4443659;32;33720;-87
2022/07/28 01:48:55;;;;;;;1.58;1.40;;;;;;;24.84;43.47;99741.50;4460857;32;33359;-85
2022/07/28 01:51:26;;;;;;;2.85;1.90;;;;;;;24.90;43.11;99732.75;4457802;32;33497;-85
2022/07/28 01:53:58;;;;;;;2.97;1.50;;;;;;;24.50;43.32;99731.50;4462337;32;34429;-85
2022/07/28 01:56:29;;;;;;;2.42;1.73;;;;;;;24.80;42.94;99719.34;4434588;32;32820;-85
2022/07/28 01:59:01;;;;;;;2.33;1.70;;;;;;;24.59;44.22;99726.97;4474590;32;34045;-85
2022/07/28 02:01:31;;;;;;;2.25;1.15;;;;;;;24.55;44.34;99728.31;4448872;32;32977;-85
2022/07/28 02:04:03;;;;;;;4.03;1.73;;;;;;;24.39;44.51;99726.34;4468969;32;33985;-85
2022/07/28 02:06:32;;;;;;;1.95;1.70;;;;;;;24.44;44.08;99724.00;4459918;32;34708;-85
2022/07/28 02:09:03;;;;;;;2.97;1.73;;;;;;;24.37;44.29;99720.25;4459950;32;33155;-85
2022/07/28 02:11:39;;;;;;;3.58;1.77;;;;;;;24.34;44.41;99712.44;4444510;32;33470;-87
2022/07/28 02:14:13;;;;;;;2.35;1.65;;;;;;;24.13;45.18;99710.09;4457644;32;34087;-85
2022/07/28 02:16:57;;;;;;;5.60;1.90;;;;;;;24.18;44.58;99705.91;4459162;32;33369;-85
2022/07/28 02:19:26;;;;;;;3.47;1.87;;;;;;;24.12;44.80;99717.34;4469660;32;33734;-85
2022/07/28 02:21:55;;;;;;;3.45;1.90;;;;;;;24.23;43.96;99717.09;4460844;32;34623;-85
2022/07/28 02:24:27;;;;;;;3.08;2.03;;;;;;;23.98;44.44;99723.28;4461586;32;34637;-85
2022/07/28 02:26:59;;;;;;;2.17;1.83;;;;;;;23.99;44.75;99715.03;4447798;32;32793;-85
2022/07/28 02:29:31;;;;;;;4.05;2.00;;;;;;;24.01;44.87;99712.16;4459024;32;32136;-85
2022/07/28 02:32:40;;;;;;;2.37;2.00;;;;;;;23.90;45.38;99712.41;4457055;32;34341;-84
2022/07/28 02:35:16;;;;;;;1.98;1.77;;;;;;;24.03;44.70;99710.19;4447660;32;33630;-85
2022/07/28 02:37:51;;;;;;;1.55;1.40;;;;;;;23.80;45.19;99717.03;4456525;32;32727;-85
2022/07/28 02:40:20;;;;;;;3.58;1.75;;;;;;;23.69;45.88;99728.88;4457528;32;34003;-85
2022/07/28 02:42:50;;;;;;;3.03;1.80;;;;;;;23.86;45.32;99732.59;4446948;32;33720;-85
2022/07/28 02:45:20;;;;;;;5.57;1.62;;;;;;;23.91;44.90;99727.59;4460667;32;34036;-84
2022/07/28 02:47:52;;;;;;;2.22;1.85;;;;;;;23.64;45.76;99737.44;4472193;32;33610;-85
2022/07/28 02:50:22;;;;;;;3.60;2.45;;;;;;;23.57;46.17;99736.31;4445851;32;33113;-85
2022/07/28 02:52:52;;;;;;;1.92;1.83;;;;;;;23.45;46.64;99742.91;4443380;32;32912;-85
2022/07/28 02:55:19;;;;;;;2.92;1.92;;;;;;;23.34;47.08;99735.88;4470543;32;35260;-84
2022/07/28 02:57:48;;;;;;;3.42;2.03;;;;;;;23.24;47.55;99741.31;4471724;32;36399;-84
2022/07/28 03:00:24;;;;;;;2.20;1.80;;;;;;;23.33;47.08;99739.59;4450296;32;34266;-84
2022/07/28 03:02:54;;;;;;;5.05;1.87;;;;;;;23.24;47.88;99745.88;4453560;32;34581;-84
2022/07/28 03:05:22;;;;;;;2.75;1.67;;;;;;;23.41;47.33;99746.94;4470401;32;33958;-84
2022/07/28 03:07:51;;;;;;;3.47;1.98;;;;;;;23.46;47.02;99745.47;4473225;32;33867;-84
2022/07/28 03:10:24;;;;;;;3.17;1.98;;;;;;;23.49;47.09;99753.22;4475191;32;32448;-84
2022/07/28 03:13:08;;;;;;;4.20;1.85;;;;;;;23.45;47.25;99751.00;4462286;32;34310;-84
2022/07/28 03:15:36;;;;;;;7.72;2.55;;;;;;;23.40;47.80;99750.59;4469793;31;33003;-84
2022/07/28 03:18:04;;;;;;;7.82;2.80;;;;;;;23.37;48.29;99751.75;4431482;32;33279;-84
2022/07/28 03:20:33;;;;;;;3.90;1.80;;;;;;;23.25;49.46;99759.19;4463224;32;34417;-84
2022/07/28 03:23:01;;;;;;;3.28;2.25;;;;;;;23.38;48.85;99758.00;4462874;32;33260;-84
2022/07/28 03:26:00;;;;;;;2.10;1.90;;;;;;;23.38;48.56;99752.59;4462124;32;33898;-84
2022/07/28 03:28:28;;;;;;;4.35;2.05;;;;;;;23.14;48.54;99758.53;4435077;32;34159;-86
2022/07/28 03:31:01;;;;;;;2.92;2.05;;;;;;;23.03;48.05;99759.56;4420363;32;32226;-86
2022/07/28 03:33:29;;;;;;;4.75;2.10;;;;;;;23.25;47.70;99763.72;4456725;32;33584;-85
2022/07/28 03:36:04;;;;;;;2.17;1.98;;;;;;;23.31;48.08;99764.97;4447548;32;34314;-85
2022/07/28 03:38:33;;;;;;;;;;;;;;;22.87;49.48;99762.84;4463096;32;34207;-85
2022/07/28 03:41:01;;;;;;;3.60;2.28;;;;;;;23.39;47.82;99759.69;4459671;32;33280;-85
2022/07/28 03:43:30;;;;;;;5.18;2.53;;;;;;;23.54;47.53;99768.09;4449824;32;33679;-85
2022/07/28 03:46:00;;;;;;;6.03;2.97;;;;;;;23.31;48.54;99781.13;4473682;32;33912;-85
2022/07/28 03:48:30;;;;;;;2.58;2.20;;;;;;;23.22;49.09;99778.34;4459939;32;33681;-84
2022/07/28 03:51:00;;;;;;;3.10;2.20;;;;;;;23.50;47.82;99770.28;4463063;32;33166;-87
2022/07/28 03:53:29;;;;;;;3.20;2.08;;;;;;;23.35;48.83;99779.84;4457200;32;34240;-85
2022/07/28 03:55:58;;;;;;;2.67;2.28;;;;;;;23.43;49.16;99782.63;4465382;32;33913;-85
2022/07/28 03:58:27;;;;;;;5.90;2.85;;;;;;;23.54;49.11;99777.03;4458150;32;34269;-85
2022/07/28 04:00:57;;;;;;;4.68;2.17;;;;;;;23.40;50.04;99789.16;4474294;32;34090;-85
2022/07/28 04:03:26;;;;;;;3.53;2.08;;;;;;;23.69;48.15;99788.19;4474750;32;33782;-85
2022/07/28 04:06:11;;;;;;;2.12;1.73;;;;;;;23.70;48.42;99785.34;4448045;32;33044;-86
2022/07/28 04:08:40;;;;;;;3.50;1.80;;;;;;;23.65;48.87;99789.50;4452683;32;33952;-85
2022/07/28 04:11:08;;;;;;;3.62;2.25;;;;;;;23.92;48.21;99794.00;4459276;32;33050;-86
2022/07/28 04:13:36;;;;;;;3.53;2.28;;;;;;;23.79;49.48;99791.69;4473354;31;34823;-85
2022/07/28 04:16:05;;;;;;;5.35;2.58;;;;;;;23.82;49.82;99798.59;4464908;32;33525;-84
2022/07/28 04:18:34;;;;;;;2.80;1.95;;;;;;;23.70;50.71;99792.59;4448176;32;33382;-86
2022/07/28 04:21:02;;;;;;;2.42;2.08;;;;;;;23.88;49.85;99792.59;4436261;32;33262;-86
2022/07/28 04:23:31;;;;;;;5.93;2.72;;;;;;;23.84;49.74;99791.25;4458475;32;33501;-86
2022/07/28 04:26:00;;;;;;;3.28;2.17;;;;;;;23.98;49.28;99799.66;4478212;32;33624;-86
2022/07/28 04:28:28;;;;;;;5.25;1.83;;;;;;;23.96;49.70;99796.25;4458989;32;32836;-84
2022/07/28 04:30:57;;;;;;;5.60;2.00;;;;;;;24.00;50.41;99804.88;4468802;32;33034;-85
2022/07/28 04:33:27;;;;;;;9.27;3.25;;;;;;;23.98;50.43;99796.09;4470834;32;33846;-84
2022/07/28 04:35:55;;;;;;;5.97;2.72;;;;;;;23.83;51.36;99800.31;4459178;32;33992;-84
2022/07/28 04:38:24;;;;;;;5.30;2.85;;;;;;;23.86;51.38;99802.69;4455426;32;33558;-84
2022/07/28 04:40:52;;;;;;;4.37;2.42;;;;;;;23.87;51.13;99807.09;4459560;32;33954;-85
2022/07/28 04:43:21;;;;;;;3.47;2.33;;;;;;;23.83;50.76;99805.69;4462654;32;32936;-85
2022/07/28 04:45:50;;;;;;;5.82;2.40;;;;;;;23.97;50.47;99797.06;4460265;32;33266;-85
2022/07/28 04:48:22;;;;;;;3.90;2.78;;;;;;;24.13;50.09;99799.12;4460355;32;33758;-85
2022/07/28 04:50:53;;;;;;;3.08;2.35;;;;;;;24.18;50.67;99797.66;4458792;32;32850;-85
2022/07/28 04:53:21;;;;;;;2.70;2.10;;;;;;;24.39;49.96;99801.91;4460495;32;33662;-85
2022/07/28 04:55:51;;;;;;;3.97;2.03;;;;;;;24.43;49.71;99801.44;4458268;32;33568;-86
2022/07/28 04:58:22;;;;;;;4.57;2.25;;;;;;;24.44;49.69;99805.81;4446659;32;32704;-85
2022/07/28 05:00:54;;;;;;;4.28;2.03;;;;;;;24.36;50.33;99803.06;4465654;32;32612;-85
2022/07/28 05:03:23;;;;;;;6.85;2.78;;;;;;;24.47;49.83;99810.91;4456001;32;32333;-85
2022/07/28 05:05:53;;;;;;;4.90;2.40;;;;;;;24.59;49.60;99803.41;4463749;32;34544;-85
2022/07/28 05:08:24;;;;;;;4.53;2.37;;;;;;;24.68;49.17;99807.88;4461609;32;32922;-85
2022/07/28 05:10:55;;;;;;;3.67;2.10;;;;;;;24.74;48.31;99809.09;4458692;32;33084;-85
2022/07/28 05:13:25;;;;;;;5.32;2.35;;;;;;;24.89;47.30;99798.56;4471745;32;33889;-85
2022/07/28 05:16:01;;;;;;;7.85;2.65;;;;;;;25.02;47.52;99809.81;4447084;32;33013;-85
2022/07/28 05:18:29;;;;;;;3.87;2.58;;;;;;;25.35;47.13;99812.69;4478002;31;34240;-85
2022/07/28 05:20:57;;;;;;;4.45;2.40;;;;;;;25.35;47.75;99810.84;4463887;32;33025;-85
2022/07/28 05:23:26;;;;;;;3.92;2.25;;;;;;;25.47;47.71;99811.41;4472512;31;35217;-85
2022/07/28 05:25:57;;;;;;;3.60;2.58;;;;;;;25.88;45.29;99807.03;4447720;32;33574;-85
2022/07/28 05:28:25;;;;;;;3.12;2.47;;;;;;;25.79;45.36;99819.69;4438633;32;33470;-84
2022/07/28 05:30:55;;;;;;;4.72;2.00;;;;;;;25.64;46.46;99821.28;4471503;31;34822;-84
2022/07/28 05:33:24;;;;;;;3.80;1.98;;;;;;;25.98;45.94;99823.97;4446424;32;33529;-84
2022/07/28 05:35:59;;;;;;;5.35;2.28;;;;;;;26.07;45.27;99822.12;4440903;32;34300;-84
2022/07/28 05:38:29;;;;;;;2.97;2.08;;;;;;;25.99;45.22;99824.81;4458523;32;34121;-84
2022/07/28 05:40:59;;;;;;;3.72;2.45;;;;;;;26.32;44.76;99830.28;4460817;32;32913;-84
2022/07/28 05:43:28;;;;;;;6.85;2.50;;;;;;;26.32;44.48;99825.69;4455586;32;34599;-84
2022/07/28 05:45:57;;;;;;;6.60;2.17;;;;;;;26.25;45.11;99828.25;4458578;32;35162;-84
2022/07/28 05:48:26;;;;;;;4.07;2.03;;;;;;;26.35;44.74;99833.50;4447031;32;33920;-83
2022/07/28 05:50:56;;;;;;;2.60;2.40;;;;;;;26.23;45.12;99838.38;4461704;32;33317;-84
2022/07/28 05:53:24;;;;;;;5.28;2.65;;;;;;;26.33;45.72;99842.78;4462210;32;33637;-83
2022/07/28 05:55:53;;;;;;;4.40;2.22;;;;;;;26.47;44.73;99836.75;4445545;32;33053;-84
2022/07/28 05:58:30;;;;;;;3.10;2.40;;;;;;;26.35;45.63;99836.22;4452958;32;33200;-84
2022/07/28 06:01:01;;;;;;;4.62;2.45;;;;;;;26.25;46.36;99841.78;4460019;32;32850;-84
2022/07/28 06:03:33;;;;;;;4.22;2.67;;;;;;;26.34;45.81;99844.47;4437498;32;34143;-84
2022/07/28 06:06:09;;;;;;;7.35;2.30;;;;;;;26.36;45.70;99848.72;4450058;32;34442;-84
2022/07/28 06:08:46;;;;;;;4.97;2.55;;;;;;;26.32;45.95;99846.50;4431315;32;33397;-84
2022/07/28 06:11:18;;;;;;;4.57;2.95;;;;;;;26.23;46.39;99859.19;4451854;32;33022;-84
2022/07/28 06:13:51;;;;;;;6.45;2.80;;;;;;;26.35;45.83;99851.56;4463549;32;34528;-84
2022/07/28 06:16:21;;;;;;;4.28;3.25;;;;;;;26.28;45.84;99863.06;4462184;32;33705;-85
2022/07/28 06:18:51;;;;;;;6.43;3.62;;;;;;;26.29;45.67;99858.50;4460575;32;34424;-85
2022/07/28 06:21:21;;;;;;;5.35;2.70;;;;;;;26.29;45.87;99856.63;4459651;32;33692;-85
2022/07/28 06:23:55;;;;;;;4.47;3.10;;;;;;;26.23;46.04;99860.03;4448902;32;33587;-85
2022/07/28 06:26:25;;;;;;;5.30;2.75;;;;;;;25.94;47.45;99856.91;4461982;32;34458;-85
2022/07/28 06:28:53;;;;;;;3.65;3.05;;;;;;;25.97;47.14;99864.69;4462484;32;34988;-85
2022/07/28 06:31:29;;;;;;;3.20;2.62;;;;;;;26.51;45.70;99867.88;4473638;31;33449;-85
2022/07/28 06:33:58;;;;;;;7.53;3.12;;;;;;;26.80;45.35;99873.63;4462148;32;35338;-84
2022/07/28 06:36:28;;;;;;;2.95;2.20;;;;;;;26.91;44.88;99871.59;4461354;32;33683;-84
2022/07/28 06:38:57;;;;;;;4.18;3.03;;;;;;;26.99;45.84;99872.44;4453064;32;33069;-85
2022/07/28 06:41:24;;;;;;;2.47;2.28;;;;;;;27.30;41.32;99864.47;4459832;32;33055;-85
2022/07/28 06:43:53;;;;;;;5.75;2.87;;;;;;;27.14;42.35;99864.50;4452451;32;32597;-85
2022/07/28 06:46:21;;;;;;;5.60;3.08;;;;;;;27.14;42.02;99867.19;4475757;32;33904;-85
2022/07/28 06:48:57;;;;;;;3.28;2.33;;;;;;;26.92;42.12;99873.28;4451461;32;34209;-85
2022/07/28 06:51:26;;;;;;;3.12;2.83;;;;;;;27.06;41.64;99873.47;4477497;32;33419;-85
2022/07/28 06:53:56;;;;;;;5.40;2.87;;;;;;;27.78;40.57;99878.91;4463731;32;33719;-85
2022/07/28 06:56:30;;;;;;;3.73;3.43;;;;;;;28.04;39.93;99875.88;4458458;32;33595;-85
2022/07/28 06:59:02;;;;;;;5.57;3.25;;;;;;;27.60;39.54;99874.72;4452408;32;32973;-85
2022/07/28 07:01:33;;;;;;;;;;;;;;;27.74;39.77;99876.72;4456622;32;34008;-85
2022/07/28 07:04:01;;;;;;;3.90;2.85;;;;;;;27.96;39.93;99885.94;4451862;32;34004;-85
2022/07/28 07:06:30;;;;;;;8.73;3.12;;;;;;;27.85;39.39;99873.63;4458305;32;32102;-85
2022/07/28 07:09:03;;;;;;;5.65;3.00;;;;;;;28.13;39.00;99875.84;4462744;32;34377;-85
2022/07/28 07:11:38;;;;;;;7.75;3.22;;;;;;;28.28;38.70;99866.75;4446221;32;34317;-85
2022/07/28 07:14:08;;;;;;;8.02;3.00;;;;;;;28.47;39.56;99872.78;4464341;32;33694;-85
2022/07/28 07:16:38;;;;;;;5.30;3.92;;;;;;;28.73;39.33;99873.25;4473204;32;33882;-84
2022/07/28 07:19:07;;;;;;;7.18;3.35;;;;;;;28.98;37.55;99864.91;4432483;32;33837;-85
2022/07/28 07:21:44;;;;;;;5.45;3.00;;;;;;;29.26;37.39;99866.00;4461871;32;34059;-84
2022/07/28 07:24:14;;;;;;;7.93;3.08;;;;;;;29.57;35.09;99870.44;4462795;32;32465;-84
2022/07/28 07:26:44;;;;;;;6.33;3.57;;;;;;;29.61;35.29;99876.34;4448282;32;34224;-84
2022/07/28 07:29:12;;;;;;;7.32;4.25;;;;;;;29.21;35.29;99871.16;4437492;32;32747;-84
2022/07/28 07:31:43;;;;;;;5.43;3.17;;;;;;;29.22;36.12;99875.56;4432763;32;33795;-84
2022/07/28 07:34:17;;;;;;;8.48;3.95;;;;;;;29.12;34.84;99874.13;4446991;32;33758;-83
2022/07/28 07:36:48;;;;;;;6.53;2.75;;;;;;;29.34;35.40;99876.78;4444262;32;33662;-84
2022/07/28 07:39:23;;;;;;;5.85;3.00;;;;;;;29.45;34.54;99872.75;4450973;32;33641;-85
2022/07/28 07:41:54;;;;;;;5.75;3.67;;;;;;;29.20;35.89;99882.19;4435182;32;35037;-84
2022/07/28 07:44:24;;;;;;;7.25;3.30;;;;;;;29.30;34.87;99867.31;4434356;32;32450;-85
2022/07/28 07:46:53;;;;;;;5.00;3.15;;;;;;;28.97;35.38;99869.50;4448961;32;35838;-85
2022/07/28 07:49:22;;;;;;;13.70;3.97;;;;;;;28.86;36.06;99866.34;4448309;32;31546;-85
2022/07/28 07:51:51;;;;;;;5.32;3.50;;;;;;;28.98;38.39;99864.91;4461405;32;33266;-84
2022/07/28 07:54:21;;;;;;;5.62;3.60;;;;;;;29.55;36.07;99858.91;4474642;32;33655;-84
2022/07/28 07:56:51;;;;;;;5.87;2.80;;;;;;;29.93;34.56;99864.22;4444457;32;33554;-85
2022/07/28 07:59:23;;;;;;;5.43;3.00;;;;;;;29.94;34.12;99866.72;4448190;32;33369;-84
2022/07/28 08:04:28;;;;;;;6.25;3.28;;;;;;;29.79;35.27;99858.59;4448610;32;33691;-84
2022/07/28 08:06:57;;;;;;;5.32;3.25;;;;;;;29.45;35.14;99869.19;4474218;32;34392;-85
2022/07/28 08:09:25;;;;;;;4.72;3.45;;;;;;;29.54;35.12;99865.34;4460901;32;32391;-84
2022/07/28 08:11:53;;;;;;;9.68;4.00;;;;;;;29.67;35.78;99865.53;4449257;32;33194;-84
2022/07/28 08:14:22;;;;;;;4.03;3.03;;;;;;;30.07;33.83;99869.63;4459242;32;33809;-84
2022/07/28 08:16:55;;;;;;;5.53;3.78;;;;;;;30.33;34.50;99854.63;4451077;32;33329;-84
2022/07/28 08:19:33;;;;;;;6.00;3.50;;;;;;;30.22;34.91;99866.88;4456380;32;34353;-84
2022/07/28 08:22:02;;;;;;;7.40;3.37;;;;;;;30.31;33.78;99856.72;4472060;31;33808;-85
2022/07/28 08:24:32;;;;;;;4.57;3.73;;;;;;;30.27;33.83;99858.97;4429720;32;33645;-84
2022/07/28 08:27:01;;;;;;;9.32;3.17;;;;;;;30.42;34.74;99858.91;4456709;32;34605;-84
2022/07/28 08:29:31;;;;;;;6.93;4.45;;;;;;;30.52;32.88;99859.44;4466120;32;33571;-84
2022/07/28 08:32:03;;;;;;;7.00;3.45;;;;;;;30.58;33.69;99864.13;4460692;32;32421;-84
2022/07/28 08:34:39;;;;;;;5.37;3.15;;;;;;;29.90;36.92;99865.41;4461220;32;33619;-84
2022/07/28 08:37:12;;;;;;;3.45;2.80;;;;;;;30.48;34.39;99870.91;4463463;32;33584;-85
2022/07/28 08:39:41;;;;;;;7.30;3.37;;;;;;;30.81;34.21;99868.53;4462886;32;33145;-84
2022/07/28 08:42:34;;;;;;;4.32;3.20;;;;;;;31.43;32.29;99864.19;4439647;32;32572;-84
2022/07/28 08:45:09;;;;;;;6.35;3.08;;;;;;;31.75;31.27;99863.53;4456656;32;34629;-85
2022/07/28 08:47:43;;;;;;;4.22;3.42;;;;;;;32.02;31.67;99860.94;4472172;32;33650;-84
2022/07/28 08:50:34;;;;;;;6.43;3.80;;;;;;;32.13;30.66;99858.44;4450091;32;32193;-84
2022/07/28 08:53:05;;;;;;;6.62;3.50;;;;;;;31.61;30.64;99850.84;4471817;32;33135;-85
2022/07/28 08:55:36;;;;;;;3.72;3.00;;;;;;;31.69;31.48;99853.44;4475974;32;33846;-84
2022/07/28 09:00:50;;;;;;;4.72;2.90;;;;;;;32.21;30.76;99851.13;4461344;32;33618;-84
2022/07/28 09:03:19;;;;;;;7.25;3.58;;;;;;;31.98;29.23;99856.94;4459071;32;33080;-84
2022/07/28 09:05:49;;;;;;;4.37;3.12;;;;;;;31.84;29.80;99854.16;4450960;32;33233;-85
2022/07/28 09:08:19;;;;;;;6.20;3.30;;;;;;;31.72;29.49;99855.75;4452496;32;34509;-83
2022/07/28 09:10:48;;;;;;;6.07;2.97;;;;;;;31.94;30.65;99853.75;4448441;32;33520;-84
2022/07/28 09:13:18;;;;;;;4.70;2.80;;;;;;;32.27;28.73;99853.88;4458506;32;33935;-84
2022/07/28 09:15:52;;;;;;;4.28;2.62;;;;;;;31.70;28.66;99857.84;4454397;32;34344;-84
2022/07/28 09:18:22;;;;;;;4.72;2.53;;;;;;;31.77;28.08;99852.41;4469162;32;33734;-85
2022/07/28 09:20:53;;;;;;;2.70;2.47;;;;;;;32.42;28.89;99850.97;4448878;32;34578;-84
2022/07/28 09:23:22;;;;;;;4.70;2.40;;;;;;;32.41;26.91;99843.00;4459412;32;33421;-84
2022/07/28 09:26:16;;;;;;;9.80;2.60;;;;;;;32.41;27.03;99848.47;4458513;32;32296;-85
2022/07/28 09:29:00;;;;;;;4.47;2.10;;;;;;;32.88;27.31;99845.53;4448289;32;33170;-84
2022/07/28 09:31:33;;;;;;;2.65;1.98;;;;;;;33.03;26.64;99836.31;4459297;32;33634;-84
2022/07/28 09:34:04;;;;;;;6.65;2.08;;;;;;;33.08;25.43;99831.03;4440363;32;33122;-85
2022/07/28 09:36:40;;;;;;;3.45;2.45;;;;;;;33.08;26.21;99828.31;4447445;32;32857;-84
2022/07/28 09:39:11;;;;;;;2.87;2.45;;;;;;;32.83;26.55;99836.28;4465404;32;34048;-84
2022/07/28 09:41:56;;;;;;;4.97;2.72;;;;;;;33.03;27.19;99836.31;4449063;32;33138;-84
2022/07/28 09:44:26;;;;;;;2.30;2.10;;;;;;;33.54;26.28;99827.41;4460126;32;33191;-84
2022/07/28 09:46:58;;;;;;;4.82;2.72;;;;;;;33.97;24.22;99821.34;4444888;32;33821;-84
2022/07/28 09:49:41;;;;;;;4.12;2.60;;;;;;;33.62;25.84;99813.47;4458056;32;33626;-84
2022/07/28 09:52:13;;;;;;;3.05;2.75;;;;;;;33.81;25.31;99818.03;4460389;32;33912;-84
2022/07/28 09:55:10;;;;;;;9.98;3.35;;;;;;;33.70;25.20;99820.59;4473711;32;33279;-84
2022/07/28 09:57:39;;;;;;;4.55;2.08;;;;;;;34.39;24.89;99806.12;4444026;32;33422;-84
2022/07/28 10:00:26;;;;;;;4.57;2.50;;;;;;;34.16;25.75;99814.91;4447438;32;33956;-85
2022/07/28 10:02:56;;;;;;;3.70;2.37;;;;;;;34.38;25.96;99801.69;4445737;32;34211;-84
2022/07/28 10:05:40;;;;;;;6.15;2.72;;;;;;;34.24;24.90;99805.59;4456809;32;33958;-84
2022/07/28 10:08:17;;;;;;;4.93;2.95;;;;;;;34.15;24.94;99802.28;4450004;32;34457;-85
2022/07/28 10:10:59;;;;;;;3.53;2.60;;;;;;;33.85;24.85;99807.44;4449373;32;32302;-84
2022/07/28 10:13:27;;;;;;;3.50;2.75;;;;;;;33.40;25.33;99810.13;4436805;32;32937;-85
2022/07/28 10:18:41;;;;;;;4.45;2.97;;;;;;;34.01;25.29;99800.66;4459806;32;33662;-84
2022/07/28 10:21:16;;;;;;;5.15;3.15;;;;;;;34.02;24.60;99785.91;4459116;32;34667;-84
2022/07/28 10:23:50;;;;;;;8.38;3.12;;;;;;;34.16;24.77;99792.97;4459742;32;33483;-85
2022/07/28 10:26:28;;;;;;;2.97;2.70;;;;;;;34.32;24.32;99786.13;4436347;32;32026;-85
2022/07/28 10:29:07;;;;;;;5.93;2.67;;;;;;;34.18;25.12;99787.28;4459964;32;33003;-85
2022/07/28 10:43:48;;;;;;;7.57;3.30;;;;;;;33.76;25.66;99787.72;4952933;27;20124;-88
2022/07/28 10:46:16;;;;;;;5.03;3.15;;;;;;;34.02;24.93;99781.25;4352418;32;32443;-89
2022/07/28 10:48:54;;;;;;;4.50;2.70;;;;;;;34.06;25.33;99777.03;4349187;32;32688;-89
2022/07/28 10:51:24;;;;;;;7.47;3.30;;;;;;;33.76;25.21;99778.66;4339988;32;32984;-90
2022/07/28 10:54:05;;;;;;;5.68;2.62;;;;;;;33.83;26.72;99776.72;4352045;32;32881;-90
2022/07/28 10:56:45;;;;;;;7.62;2.90;;;;;;;33.50;25.58;99777.69;4377115;32;33827;-89
2022/07/28 10:59:39;;;;;;;7.18;3.33;;;;;;;33.56;25.63;99782.31;4349477;32;33514;-89
2022/07/28 11:02:41;;;;;;;5.00;3.42;;;;;;;34.17;25.57;99764.50;4361020;32;32342;-90
2022/07/28 11:05:32;;;;;;;5.78;3.60;;;;;;;34.30;24.75;99767.16;4362602;32;33194;-90
2022/07/28 11:08:05;;;;;;;3.37;2.65;;;;;;;34.27;25.40;99751.16;4361327;32;32294;-90
2022/07/28 11:10:52;;;;;;;9.00;2.95;;;;;;;34.13;25.14;99760.53;4361977;32;34238;-90
2022/07/28 11:13:37;;;;;;;8.80;3.05;;;;;;;34.51;26.85;99751.41;4347557;32;32350;-89
2022/07/28 11:16:14;;;;;;;3.80;3.17;;;;;;;34.52;24.85;99750.37;4355354;32;33465;-91
2022/07/28 11:19:01;;;;;;;7.57;2.62;;;;;;;35.24;23.66;99748.81;4363654;32;32463;-90
2022/07/28 11:21:34;;;;;;;3.92;3.17;;;;;;;35.01;23.89;99748.66;4362403;32;32674;-90
2022/07/28 11:24:07;;;;;;;5.37;2.55;;;;;;;35.50;23.60;99744.91;4357452;32;32587;-90
2022/07/28 11:26:43;;;;;;;4.28;3.03;;;;;;;35.32;23.79;99750.41;4354786;32;33341;-90
2022/07/28 11:29:11;;;;;;;8.38;3.42;;;;;;;35.38;23.46;99753.09;4329049;32;33282;-90
2022/07/28 11:31:45;;;;;;;3.25;2.95;;;;;;;35.24;24.67;99754.31;4365947;32;33428;-90
2022/07/28 11:34:21;;;;;;;4.55;3.00;;;;;;;35.29;23.98;99756.38;4353970;32;34135;-89
2022/07/28 11:37:06;;;;;;;9.25;3.10;;;;;;;35.29;23.65;99753.62;4341346;32;33313;-90
2022/07/28 11:39:36;;;;;;;3.47;2.60;;;;;;;35.53;23.68;99752.72;4353356;32;32226;-90
2022/07/28 11:42:23;;;;;;;10.73;3.30;;;;;;;34.79;24.60;99757.28;4342372;32;32280;-90
2022/07/28 11:44:53;;;;;;;4.85;2.90;;;;;;;35.66;23.34;99743.47;4372673;32;32505;-90
2022/07/28 11:47:23;;;;;;;4.68;3.10;;;;;;;35.59;22.49;99750.94;4360617;32;32985;-90
2022/07/28 11:50:14;;;;;;;4.40;3.28;;;;;;;35.34;24.02;99743.63;4338705;32;32421;-90
2022/07/28 11:52:52;;;;;;;2.80;2.37;;;;;;;35.17;24.03;99745.28;4337093;32;32869;-90
2022/07/28 11:55:21;;;;;;;3.20;2.60;;;;;;;34.62;25.00;99748.81;4362687;32;33194;-90
2022/07/28 11:58:23;;;;;;;3.85;3.00;;;;;;;34.42;24.58;99747.25;4365517;32;34319;-89
2022/07/28 12:01:11;;;;;;;6.03;3.62;;;;;;;34.03;25.10;99749.22;4350925;32;33806;-90
2022/07/28 12:03:48;;;;;;;8.77;2.75;;;;;;;33.81;25.78;99746.81;4365625;32;32026;-91
2022/07/28 12:06:23;;;;;;;5.03;3.00;;;;;;;33.81;25.95;99743.25;4339429;32;33166;-90
2022/07/28 12:09:00;;;;;;;6.53;3.05;;;;;;;33.70;25.48;99743.91;4339299;32;33208;-90
2022/07/28 12:11:31;;;;;;;4.50;2.50;;;;;;;33.58;25.52;99741.03;4339287;32;33106;-90
2022/07/28 12:20:53;;;;;;;4.12;2.92;;;;;;;32.84;26.68;99734.91;4337806;32;33138;-90
2022/07/28 12:23:32;;;;;;;2.92;2.47;;;;;;;32.99;26.33;99736.59;4354279;32;34124;-90
2022/07/28 12:26:28;;;;;;;4.12;2.78;;;;;;;33.58;25.52;99725.44;4344003;32;33877;-90